sensor_id;sensor_type;location;lat;lon;timestamp;temperature;humidity
43999;DHT22;51319;52.162;5.302;2023-06-22T00:00:02;18.40;91.30
43999;DHT22;51319;52.162;5.302;2023-06-22T00:02:35;18.40;91.50
43999;DHT22;51319;52.162;5.302;2023-06-22T00:05:02;18.30;91.60
43999;DHT22;51319;52.162;5.302;2023-06-22T00:07:32;18.30;91.80
43999;DHT22;51319;52.162;5.302;2023-06-22T00:09:59;18.30;91.80
43999;DHT22;51319;52.162;5.302;2023-06-22T00:12:29;18.20;91.90
43999;DHT22;51319;52.162;5.302;2023-06-22T00:15:05;18.20;92.20
43999;DHT22;51319;52.162;5.302;2023-06-22T00:17:32;18.20;92.50
43999;DHT22;51319;52.162;5.302;2023-06-22T00:19:59;18.20;92.60
43999;DHT22;51319;52.162;5.302;2023-06-22T00:22:26;18.20;92.60
43999;DHT22;51319;52.162;5.302;2023-06-22T00:24:57;18.10;92.70
43999;DHT22;51319;52.162;5.302;2023-06-22T00:27:24;18.00;92.90
43999;DHT22;51319;52.162;5.302;2023-06-22T00:29:51;18.10;93.10
43999;DHT22;51319;52.162;5.302;2023-06-22T00:32:18;18.00;93.20
43999;DHT22;51319;52.162;5.302;2023-06-22T00:34:45;18.00;93.40
43999;DHT22;51319;52.162;5.302;2023-06-22T00:37:12;18.00;93.50
43999;DHT22;51319;52.162;5.302;2023-06-22T00:39:39;17.90;93.50
43999;DHT22;51319;52.162;5.302;2023-06-22T00:42:06;17.80;93.60
43999;DHT22;51319;52.162;5.302;2023-06-22T00:44:35;17.80;93.90
43999;DHT22;51319;52.162;5.302;2023-06-22T00:47:02;17.80;94.10
43999;DHT22;51319;52.162;5.302;2023-06-22T00:49:30;17.80;94.30
43999;DHT22;51319;52.162;5.302;2023-06-22T00:51:57;17.80;94.50
43999;DHT22;51319;52.162;5.302;2023-06-22T00:54:24;17.80;94.50
43999;DHT22;51319;52.162;5.302;2023-06-22T00:56:53;17.70;94.60
43999;DHT22;51319;52.162;5.302;2023-06-22T00:59:24;17.60;94.90
43999;DHT22;51319;52.162;5.302;2023-06-22T01:01:53;17.60;95.10
43999;DHT22;51319;52.162;5.302;2023-06-22T01:04:21;17.70;95.40
43999;DHT22;51319;52.162;5.302;2023-06-22T01:12:42;17.40;95.70
43999;DHT22;51319;52.162;5.302;2023-06-22T01:15:16;17.40;95.90
43999;DHT22;51319;52.162;5.302;2023-06-22T01:17:44;17.40;96.20
43999;DHT22;51319;52.162;5.302;2023-06-22T01:20:13;17.40;96.30
43999;DHT22;51319;52.162;5.302;2023-06-22T01:23:33;17.30;96.30
43999;DHT22;51319;52.162;5.302;2023-06-22T01:26:42;17.20;96.50
43999;DHT22;51319;52.162;5.302;2023-06-22T01:29:11;17.20;96.50
43999;DHT22;51319;52.162;5.302;2023-06-22T01:31:40;17.10;96.50
43999;DHT22;51319;52.162;5.302;2023-06-22T01:34:08;17.00;96.70
43999;DHT22;51319;52.162;5.302;2023-06-22T01:36:38;17.00;96.80
43999;DHT22;51319;52.162;5.302;2023-06-22T01:39:06;17.00;97.10
43999;DHT22;51319;52.162;5.302;2023-06-22T01:41:36;17.00;97.20
43999;DHT22;51319;52.162;5.302;2023-06-22T01:44:07;17.00;97.40
43999;DHT22;51319;52.162;5.302;2023-06-22T01:46:36;17.00;97.50
43999;DHT22;51319;52.162;5.302;2023-06-22T01:49:04;16.90;97.50
43999;DHT22;51319;52.162;5.302;2023-06-22T01:51:32;16.90;97.60
43999;DHT22;51319;52.162;5.302;2023-06-22T01:53:59;16.90;97.70
43999;DHT22;51319;52.162;5.302;2023-06-22T01:56:26;16.90;97.80
43999;DHT22;51319;52.162;5.302;2023-06-22T01:59:20;16.90;97.80
43999;DHT22;51319;52.162;5.302;2023-06-22T02:02:00;16.90;98.00
43999;DHT22;51319;52.162;5.302;2023-06-22T02:07:10;16.80;97.80
43999;DHT22;51319;52.162;5.302;2023-06-22T02:09:39;16.80;97.90
43999;DHT22;51319;52.162;5.302;2023-06-22T02:12:11;16.80;97.80
43999;DHT22;51319;52.162;5.302;2023-06-22T02:14:40;16.80;97.80
43999;DHT22;51319;52.162;5.302;2023-06-22T02:17:08;16.70;98.00
43999;DHT22;51319;52.162;5.302;2023-06-22T02:19:37;16.70;98.10
43999;DHT22;51319;52.162;5.302;2023-06-22T02:22:04;16.70;97.90
43999;DHT22;51319;52.162;5.302;2023-06-22T02:24:31;16.60;97.80
43999;DHT22;51319;52.162;5.302;2023-06-22T02:27:01;16.50;98.00
43999;DHT22;51319;52.162;5.302;2023-06-22T02:29:31;16.50;98.10
43999;DHT22;51319;52.162;5.302;2023-06-22T02:31:58;16.50;98.30
43999;DHT22;51319;52.162;5.302;2023-06-22T02:34:25;16.50;98.30
43999;DHT22;51319;52.162;5.302;2023-06-22T02:36:52;16.40;98.30
43999;DHT22;51319;52.162;5.302;2023-06-22T02:39:22;16.30;98.30
43999;DHT22;51319;52.162;5.302;2023-06-22T02:41:50;16.40;98.40
43999;DHT22;51319;52.162;5.302;2023-06-22T02:44:18;16.30;98.40
43999;DHT22;51319;52.162;5.302;2023-06-22T02:46:46;16.30;98.50
43999;DHT22;51319;52.162;5.302;2023-06-22T02:49:13;16.30;98.50
43999;DHT22;51319;52.162;5.302;2023-06-22T02:51:44;16.20;98.50
43999;DHT22;51319;52.162;5.302;2023-06-22T02:54:11;16.20;98.60
43999;DHT22;51319;52.162;5.302;2023-06-22T02:56:38;16.20;98.50
43999;DHT22;51319;52.162;5.302;2023-06-22T02:59:07;16.20;98.60
43999;DHT22;51319;52.162;5.302;2023-06-22T03:01:34;16.20;98.60
43999;DHT22;51319;52.162;5.302;2023-06-22T03:04:08;16.20;98.60
43999;DHT22;51319;52.162;5.302;2023-06-22T03:06:36;16.20;98.60
43999;DHT22;51319;52.162;5.302;2023-06-22T03:09:04;16.20;98.60
43999;DHT22;51319;52.162;5.302;2023-06-22T03:11:34;16.20;98.60
43999;DHT22;51319;52.162;5.302;2023-06-22T03:14:02;16.20;98.60
43999;DHT22;51319;52.162;5.302;2023-06-22T03:16:31;16.10;98.60
43999;DHT22;51319;52.162;5.302;2023-06-22T03:19:01;16.10;98.70
43999;DHT22;51319;52.162;5.302;2023-06-22T03:21:28;16.10;98.80
43999;DHT22;51319;52.162;5.302;2023-06-22T03:23:56;16.10;98.80
43999;DHT22;51319;52.162;5.302;2023-06-22T03:26:23;16.00;98.90
43999;DHT22;51319;52.162;5.302;2023-06-22T03:28:56;16.00;98.90
43999;DHT22;51319;52.162;5.302;2023-06-22T03:31:23;16.00;98.90
43999;DHT22;51319;52.162;5.302;2023-06-22T03:33:50;16.00;98.90
43999;DHT22;51319;52.162;5.302;2023-06-22T03:36:18;16.00;99.00
43999;DHT22;51319;52.162;5.302;2023-06-22T03:38:49;16.00;99.00
43999;DHT22;51319;52.162;5.302;2023-06-22T03:41:16;16.00;99.00
43999;DHT22;51319;52.162;5.302;2023-06-22T03:43:43;16.00;98.90
43999;DHT22;51319;52.162;5.302;2023-06-22T03:46:11;16.00;98.90
43999;DHT22;51319;52.162;5.302;2023-06-22T03:48:38;16.00;99.00
43999;DHT22;51319;52.162;5.302;2023-06-22T03:51:05;16.00;99.00
43999;DHT22;51319;52.162;5.302;2023-06-22T03:53:32;16.00;99.10
43999;DHT22;51319;52.162;5.302;2023-06-22T03:56:00;16.00;99.00
43999;DHT22;51319;52.162;5.302;2023-06-22T03:58:27;16.00;99.00
43999;DHT22;51319;52.162;5.302;2023-06-22T04:00:59;16.00;98.90
43999;DHT22;51319;52.162;5.302;2023-06-22T04:03:26;15.90;98.80
43999;DHT22;51319;52.162;5.302;2023-06-22T04:05:54;15.90;98.90
43999;DHT22;51319;52.162;5.302;2023-06-22T04:08:21;15.90;99.00
43999;DHT22;51319;52.162;5.302;2023-06-22T04:10:48;15.90;99.20
43999;DHT22;51319;52.162;5.302;2023-06-22T04:13:14;16.00;99.20
43999;DHT22;51319;52.162;5.302;2023-06-22T04:15:41;16.00;99.20
43999;DHT22;51319;52.162;5.302;2023-06-22T04:18:08;16.00;99.20
43999;DHT22;51319;52.162;5.302;2023-06-22T04:20:35;16.10;99.20
43999;DHT22;51319;52.162;5.302;2023-06-22T04:23:04;16.10;99.20
43999;DHT22;51319;52.162;5.302;2023-06-22T04:25:31;16.10;99.00
43999;DHT22;51319;52.162;5.302;2023-06-22T04:27:58;16.20;99.10
43999;DHT22;51319;52.162;5.302;2023-06-22T04:33:10;16.30;99.20
43999;DHT22;51319;52.162;5.302;2023-06-22T04:35:37;16.40;99.30
43999;DHT22;51319;52.162;5.302;2023-06-22T04:38:08;16.40;99.40
43999;DHT22;51319;52.162;5.302;2023-06-22T04:45:56;16.80;99.90
43999;DHT22;51319;52.162;5.302;2023-06-22T04:48:30;17.00;99.90
43999;DHT22;51319;52.162;5.302;2023-06-22T04:51:02;17.10;99.90
43999;DHT22;51319;52.162;5.302;2023-06-22T04:53:31;17.20;99.60
43999;DHT22;51319;52.162;5.302;2023-06-22T04:55:58;17.30;99.60
43999;DHT22;51319;52.162;5.302;2023-06-22T04:58:25;17.40;99.60
43999;DHT22;51319;52.162;5.302;2023-06-22T05:08:46;17.80;99.90
43999;DHT22;51319;52.162;5.302;2023-06-22T05:19:29;18.00;99.90
43999;DHT22;51319;52.162;5.302;2023-06-22T05:22:01;18.10;99.90
43999;DHT22;51319;52.162;5.302;2023-06-22T05:24:28;18.20;99.90
43999;DHT22;51319;52.162;5.302;2023-06-22T05:26:55;18.20;99.90
43999;DHT22;51319;52.162;5.302;2023-06-22T05:29:22;18.40;99.90
43999;DHT22;51319;52.162;5.302;2023-06-22T05:31:49;18.50;99.90
43999;DHT22;51319;52.162;5.302;2023-06-22T05:34:16;18.60;99.90
43999;DHT22;51319;52.162;5.302;2023-06-22T05:36:43;18.70;99.80
43999;DHT22;51319;52.162;5.302;2023-06-22T05:39:12;18.90;99.70
43999;DHT22;51319;52.162;5.302;2023-06-22T05:41:40;19.10;99.50
43999;DHT22;51319;52.162;5.302;2023-06-22T05:44:07;19.30;99.10
43999;DHT22;51319;52.162;5.302;2023-06-22T05:46:34;19.50;98.70
43999;DHT22;51319;52.162;5.302;2023-06-22T05:49:01;19.50;98.10
43999;DHT22;51319;52.162;5.302;2023-06-22T05:51:29;19.60;97.90
43999;DHT22;51319;52.162;5.302;2023-06-22T05:53:56;19.70;97.70
43999;DHT22;51319;52.162;5.302;2023-06-22T05:56:23;19.90;97.70
43999;DHT22;51319;52.162;5.302;2023-06-22T05:58:50;20.00;97.40
43999;DHT22;51319;52.162;5.302;2023-06-22T06:04:05;20.40;96.70
43999;DHT22;51319;52.162;5.302;2023-06-22T06:06:34;20.50;96.30
43999;DHT22;51319;52.162;5.302;2023-06-22T06:09:04;20.60;96.00
43999;DHT22;51319;52.162;5.302;2023-06-22T06:11:31;20.70;95.80
43999;DHT22;51319;52.162;5.302;2023-06-22T06:13:59;20.80;95.80
43999;DHT22;51319;52.162;5.302;2023-06-22T06:16:25;21.00;95.40
43999;DHT22;51319;52.162;5.302;2023-06-22T06:18:54;21.50;95.10
43999;DHT22;51319;52.162;5.302;2023-06-22T06:21:22;22.10;94.10
43999;DHT22;51319;52.162;5.302;2023-06-22T06:23:49;22.50;92.90
43999;DHT22;51319;52.162;5.302;2023-06-22T06:26:16;22.70;91.50
43999;DHT22;51319;52.162;5.302;2023-06-22T06:28:45;22.70;90.80
43999;DHT22;51319;52.162;5.302;2023-06-22T06:31:13;22.90;90.40
43999;DHT22;51319;52.162;5.302;2023-06-22T06:33:43;23.00;89.90
43999;DHT22;51319;52.162;5.302;2023-06-22T06:36:10;23.20;89.40
43999;DHT22;51319;52.162;5.302;2023-06-22T06:38:37;23.60;88.20
43999;DHT22;51319;52.162;5.302;2023-06-22T06:41:04;23.90;86.00
43999;DHT22;51319;52.162;5.302;2023-06-22T06:43:31;24.40;83.90
43999;DHT22;51319;52.162;5.302;2023-06-22T06:45:58;24.80;81.10
43999;DHT22;51319;52.162;5.302;2023-06-22T06:48:25;25.10;79.00
43999;DHT22;51319;52.162;5.302;2023-06-22T06:53:32;25.70;75.90
43999;DHT22;51319;52.162;5.302;2023-06-22T06:56:02;25.90;74.80
43999;DHT22;51319;52.162;5.302;2023-06-22T06:58:30;26.10;74.50
43999;DHT22;51319;52.162;5.302;2023-06-22T07:01:00;26.50;73.70
43999;DHT22;51319;52.162;5.302;2023-06-22T07:03:27;26.80;71.80
43999;DHT22;51319;52.162;5.302;2023-06-22T07:08:39;27.20;69.10
43999;DHT22;51319;52.162;5.302;2023-06-22T07:11:06;27.40;67.30
43999;DHT22;51319;52.162;5.302;2023-06-22T07:13:33;27.70;66.40
43999;DHT22;51319;52.162;5.302;2023-06-22T07:18:35;27.50;65.60
43999;DHT22;51319;52.162;5.302;2023-06-22T07:29:08;28.10;64.80
43999;DHT22;51319;52.162;5.302;2023-06-22T07:31:36;28.30;63.70
43999;DHT22;51319;52.162;5.302;2023-06-22T07:34:04;28.50;63.10
43999;DHT22;51319;52.162;5.302;2023-06-22T07:36:31;28.80;62.30
43999;DHT22;51319;52.162;5.302;2023-06-22T07:39:02;29.10;61.60
43999;DHT22;51319;52.162;5.302;2023-06-22T07:41:30;29.30;60.70
43999;DHT22;51319;52.162;5.302;2023-06-22T07:43:57;29.60;59.50
43999;DHT22;51319;52.162;5.302;2023-06-22T07:46:25;29.80;59.80
43999;DHT22;51319;52.162;5.302;2023-06-22T07:48:52;30.30;59.00
43999;DHT22;51319;52.162;5.302;2023-06-22T07:51:22;30.90;58.00
43999;DHT22;51319;52.162;5.302;2023-06-22T07:53:52;31.40;56.30
43999;DHT22;51319;52.162;5.302;2023-06-22T07:56:19;31.80;56.20
43999;DHT22;51319;52.162;5.302;2023-06-22T07:58:50;32.20;54.80
43999;DHT22;51319;52.162;5.302;2023-06-22T08:01:17;32.40;54.10
43999;DHT22;51319;52.162;5.302;2023-06-22T08:03:49;32.60;52.40
43999;DHT22;51319;52.162;5.302;2023-06-22T08:06:16;32.70;51.50
43999;DHT22;51319;52.162;5.302;2023-06-22T08:08:43;32.90;50.90
43999;DHT22;51319;52.162;5.302;2023-06-22T08:11:14;33.00;50.40
43999;DHT22;51319;52.162;5.302;2023-06-22T08:13:41;33.20;50.30
43999;DHT22;51319;52.162;5.302;2023-06-22T08:16:08;33.40;49.70
43999;DHT22;51319;52.162;5.302;2023-06-22T08:18:35;33.50;49.20
43999;DHT22;51319;52.162;5.302;2023-06-22T08:21:02;33.80;48.80
43999;DHT22;51319;52.162;5.302;2023-06-22T08:23:31;34.10;48.60
43999;DHT22;51319;52.162;5.302;2023-06-22T08:26:01;34.40;47.20
43999;DHT22;51319;52.162;5.302;2023-06-22T08:28:27;34.60;46.60
43999;DHT22;51319;52.162;5.302;2023-06-22T08:30:54;34.80;46.40
43999;DHT22;51319;52.162;5.302;2023-06-22T08:33:22;35.20;45.80
43999;DHT22;51319;52.162;5.302;2023-06-22T08:35:55;35.60;45.10
43999;DHT22;51319;52.162;5.302;2023-06-22T08:38:22;36.10;44.90
43999;DHT22;51319;52.162;5.302;2023-06-22T08:40:50;36.40;44.40
43999;DHT22;51319;52.162;5.302;2023-06-22T08:43:17;36.70;43.50
43999;DHT22;51319;52.162;5.302;2023-06-22T08:45:44;36.80;43.40
43999;DHT22;51319;52.162;5.302;2023-06-22T08:48:11;37.10;42.60
43999;DHT22;51319;52.162;5.302;2023-06-22T08:50:38;36.80;40.80
43999;DHT22;51319;52.162;5.302;2023-06-22T08:53:07;36.30;41.80
43999;DHT22;51319;52.162;5.302;2023-06-22T08:55:34;36.00;41.60
43999;DHT22;51319;52.162;5.302;2023-06-22T08:58:02;35.80;41.40
43999;DHT22;51319;52.162;5.302;2023-06-22T09:00:30;35.60;42.20
43999;DHT22;51319;52.162;5.302;2023-06-22T09:03:01;35.40;42.30
43999;DHT22;51319;52.162;5.302;2023-06-22T09:05:29;35.40;42.20
43999;DHT22;51319;52.162;5.302;2023-06-22T09:07:56;35.10;42.30
43999;DHT22;51319;52.162;5.302;2023-06-22T09:10:26;34.80;42.60
43999;DHT22;51319;52.162;5.302;2023-06-22T09:12:53;34.70;42.80
43999;DHT22;51319;52.162;5.302;2023-06-22T09:15:27;34.40;43.80
43999;DHT22;51319;52.162;5.302;2023-06-22T09:17:55;34.10;43.40
43999;DHT22;51319;52.162;5.302;2023-06-22T09:20:22;34.00;43.80
43999;DHT22;51319;52.162;5.302;2023-06-22T09:22:49;33.80;44.50
43999;DHT22;51319;52.162;5.302;2023-06-22T09:25:16;33.70;45.00
43999;DHT22;51319;52.162;5.302;2023-06-22T09:27:44;33.70;44.80
43999;DHT22;51319;52.162;5.302;2023-06-22T09:30:11;33.80;45.30
43999;DHT22;51319;52.162;5.302;2023-06-22T09:32:38;33.70;44.70
43999;DHT22;51319;52.162;5.302;2023-06-22T09:35:06;33.40;44.50
43999;DHT22;51319;52.162;5.302;2023-06-22T09:37:33;33.00;44.70
43999;DHT22;51319;52.162;5.302;2023-06-22T09:40:01;32.70;45.50
43999;DHT22;51319;52.162;5.302;2023-06-22T09:42:27;32.30;46.50
43999;DHT22;51319;52.162;5.302;2023-06-22T09:47:29;31.90;46.20
43999;DHT22;51319;52.162;5.302;2023-06-22T09:49:58;31.80;46.40
43999;DHT22;51319;52.162;5.302;2023-06-22T09:52:26;31.70;46.70
43999;DHT22;51319;52.162;5.302;2023-06-22T09:55:12;31.60;48.30
43999;DHT22;51319;52.162;5.302;2023-06-22T09:57:39;31.40;48.50
43999;DHT22;51319;52.162;5.302;2023-06-22T10:00:08;31.20;48.50
43999;DHT22;51319;52.162;5.302;2023-06-22T10:02:36;31.00;48.70
43999;DHT22;51319;52.162;5.302;2023-06-22T10:05:04;30.70;49.90
43999;DHT22;51319;52.162;5.302;2023-06-22T10:07:31;30.40;51.20
43999;DHT22;51319;52.162;5.302;2023-06-22T10:10:01;30.10;52.10
43999;DHT22;51319;52.162;5.302;2023-06-22T10:12:29;29.90;52.00
43999;DHT22;51319;52.162;5.302;2023-06-22T10:14:56;29.70;53.10
43999;DHT22;51319;52.162;5.302;2023-06-22T10:17:23;29.50;53.40
43999;DHT22;51319;52.162;5.302;2023-06-22T10:19:50;29.40;54.00
43999;DHT22;51319;52.162;5.302;2023-06-22T10:22:17;29.30;54.30
43999;DHT22;51319;52.162;5.302;2023-06-22T10:24:44;29.10;54.60
43999;DHT22;51319;52.162;5.302;2023-06-22T10:27:12;29.00;54.60
43999;DHT22;51319;52.162;5.302;2023-06-22T10:29:40;28.90;55.10
43999;DHT22;51319;52.162;5.302;2023-06-22T10:32:08;28.70;54.70
43999;DHT22;51319;52.162;5.302;2023-06-22T10:34:35;28.60;55.30
43999;DHT22;51319;52.162;5.302;2023-06-22T10:37:02;28.50;55.60
43999;DHT22;51319;52.162;5.302;2023-06-22T10:39:29;28.40;56.70
43999;DHT22;51319;52.162;5.302;2023-06-22T10:41:58;28.30;56.90
43999;DHT22;51319;52.162;5.302;2023-06-22T10:44:25;28.20;56.80
43999;DHT22;51319;52.162;5.302;2023-06-22T10:46:52;28.10;57.40
43999;DHT22;51319;52.162;5.302;2023-06-22T10:49:19;28.10;57.90
43999;DHT22;51319;52.162;5.302;2023-06-22T10:51:46;28.00;58.20
43999;DHT22;51319;52.162;5.302;2023-06-22T10:54:13;28.00;57.80
43999;DHT22;51319;52.162;5.302;2023-06-22T10:56:40;28.00;58.00
43999;DHT22;51319;52.162;5.302;2023-06-22T10:59:08;27.90;57.80
43999;DHT22;51319;52.162;5.302;2023-06-22T11:01:35;27.90;57.80
43999;DHT22;51319;52.162;5.302;2023-06-22T11:04:03;27.90;58.70
43999;DHT22;51319;52.162;5.302;2023-06-22T11:06:31;27.90;58.40
43999;DHT22;51319;52.162;5.302;2023-06-22T11:08:58;27.90;58.20
43999;DHT22;51319;52.162;5.302;2023-06-22T11:11:38;27.90;57.90
43999;DHT22;51319;52.162;5.302;2023-06-22T11:14:05;27.90;57.10
43999;DHT22;51319;52.162;5.302;2023-06-22T11:16:32;27.90;57.20
43999;DHT22;51319;52.162;5.302;2023-06-22T11:18:59;27.90;56.40
43999;DHT22;51319;52.162;5.302;2023-06-22T11:21:26;27.80;56.20
43999;DHT22;51319;52.162;5.302;2023-06-22T11:23:53;27.90;56.50
43999;DHT22;51319;52.162;5.302;2023-06-22T11:26:19;27.90;56.70
43999;DHT22;51319;52.162;5.302;2023-06-22T11:31:23;28.00;56.70
43999;DHT22;51319;52.162;5.302;2023-06-22T11:33:52;28.10;57.10
43999;DHT22;51319;52.162;5.302;2023-06-22T11:36:20;28.10;56.40
43999;DHT22;51319;52.162;5.302;2023-06-22T11:38:52;28.20;56.10
43999;DHT22;51319;52.162;5.302;2023-06-22T11:41:19;28.20;55.60
43999;DHT22;51319;52.162;5.302;2023-06-22T11:43:46;28.30;56.00
43999;DHT22;51319;52.162;5.302;2023-06-22T11:46:15;28.40;56.30
43999;DHT22;51319;52.162;5.302;2023-06-22T11:48:42;28.50;56.50
43999;DHT22;51319;52.162;5.302;2023-06-22T11:51:09;28.60;55.50
43999;DHT22;51319;52.162;5.302;2023-06-22T11:53:37;28.70;56.10
43999;DHT22;51319;52.162;5.302;2023-06-22T11:56:04;28.70;55.60
43999;DHT22;51319;52.162;5.302;2023-06-22T11:58:31;28.70;55.80
43999;DHT22;51319;52.162;5.302;2023-06-22T12:00:57;28.80;56.00
43999;DHT22;51319;52.162;5.302;2023-06-22T12:03:24;28.90;55.90
43999;DHT22;51319;52.162;5.302;2023-06-22T12:05:52;28.90;55.40
43999;DHT22;51319;52.162;5.302;2023-06-22T12:08:19;28.80;55.00
43999;DHT22;51319;52.162;5.302;2023-06-22T12:10:46;28.80;55.50
43999;DHT22;51319;52.162;5.302;2023-06-22T12:13:13;28.70;55.00
43999;DHT22;51319;52.162;5.302;2023-06-22T12:15:40;28.70;55.30
43999;DHT22;51319;52.162;5.302;2023-06-22T12:18:07;28.70;54.90
43999;DHT22;51319;52.162;5.302;2023-06-22T12:20:35;28.70;55.00
43999;DHT22;51319;52.162;5.302;2023-06-22T12:23:05;28.70;54.30
43999;DHT22;51319;52.162;5.302;2023-06-22T12:25:34;28.70;53.80
43999;DHT22;51319;52.162;5.302;2023-06-22T12:28:03;28.70;53.50
43999;DHT22;51319;52.162;5.302;2023-06-22T12:30:34;28.60;54.10
43999;DHT22;51319;52.162;5.302;2023-06-22T12:33:04;28.50;54.10
43999;DHT22;51319;52.162;5.302;2023-06-22T12:35:35;28.40;53.90
43999;DHT22;51319;52.162;5.302;2023-06-22T12:45:56;28.00;57.80
43999;DHT22;51319;52.162;5.302;2023-06-22T12:48:27;27.90;58.60
43999;DHT22;51319;52.162;5.302;2023-06-22T12:59:10;27.30;60.80
43999;DHT22;51319;52.162;5.302;2023-06-22T13:01:37;27.30;61.70
43999;DHT22;51319;52.162;5.302;2023-06-22T13:04:05;27.20;62.50
43999;DHT22;51319;52.162;5.302;2023-06-22T13:06:32;27.10;63.20
43999;DHT22;51319;52.162;5.302;2023-06-22T13:08:59;27.00;63.40
43999;DHT22;51319;52.162;5.302;2023-06-22T13:11:29;26.80;64.50
43999;DHT22;51319;52.162;5.302;2023-06-22T13:13:56;26.70;65.50
43999;DHT22;51319;52.162;5.302;2023-06-22T13:16:23;26.60;66.90
43999;DHT22;51319;52.162;5.302;2023-06-22T13:18:50;26.50;67.90
43999;DHT22;51319;52.162;5.302;2023-06-22T13:21:17;26.40;68.30
43999;DHT22;51319;52.162;5.302;2023-06-22T13:23:44;26.30;68.30
43999;DHT22;51319;52.162;5.302;2023-06-22T13:26:11;26.20;68.70
43999;DHT22;51319;52.162;5.302;2023-06-22T13:28:38;26.10;69.60
43999;DHT22;51319;52.162;5.302;2023-06-22T13:31:06;26.00;70.20
43999;DHT22;51319;52.162;5.302;2023-06-22T13:33:35;25.90;70.70
43999;DHT22;51319;52.162;5.302;2023-06-22T13:36:01;25.80;71.40
43999;DHT22;51319;52.162;5.302;2023-06-22T13:38:30;25.70;71.90
43999;DHT22;51319;52.162;5.302;2023-06-22T13:40:58;25.60;72.30
43999;DHT22;51319;52.162;5.302;2023-06-22T13:43:27;25.50;72.60
43999;DHT22;51319;52.162;5.302;2023-06-22T13:45:54;25.40;73.90
43999;DHT22;51319;52.162;5.302;2023-06-22T13:48:21;25.30;73.80
43999;DHT22;51319;52.162;5.302;2023-06-22T13:50:49;25.20;74.10
43999;DHT22;51319;52.162;5.302;2023-06-22T13:53:16;25.10;74.70
43999;DHT22;51319;52.162;5.302;2023-06-22T13:55:43;25.00;75.10
43999;DHT22;51319;52.162;5.302;2023-06-22T13:58:10;24.90;75.50
43999;DHT22;51319;52.162;5.302;2023-06-22T14:00:37;24.90;76.00
43999;DHT22;51319;52.162;5.302;2023-06-22T14:03:05;24.80;76.70
43999;DHT22;51319;52.162;5.302;2023-06-22T14:05:32;24.80;77.50
43999;DHT22;51319;52.162;5.302;2023-06-22T14:08:02;24.70;78.20
43999;DHT22;51319;52.162;5.302;2023-06-22T14:10:45;24.70;78.40
43999;DHT22;51319;52.162;5.302;2023-06-22T14:13:12;24.60;78.50
43999;DHT22;51319;52.162;5.302;2023-06-22T14:15:41;24.60;78.90
43999;DHT22;51319;52.162;5.302;2023-06-22T14:18:10;24.60;78.70
43999;DHT22;51319;52.162;5.302;2023-06-22T14:20:37;24.50;78.80
43999;DHT22;51319;52.162;5.302;2023-06-22T14:23:04;24.50;79.50
43999;DHT22;51319;52.162;5.302;2023-06-22T14:25:31;24.50;80.10
43999;DHT22;51319;52.162;5.302;2023-06-22T14:27:59;24.50;80.10
43999;DHT22;51319;52.162;5.302;2023-06-22T14:30:26;24.50;80.40
43999;DHT22;51319;52.162;5.302;2023-06-22T14:32:54;24.40;80.40
43999;DHT22;51319;52.162;5.302;2023-06-22T14:35:21;24.40;80.10
43999;DHT22;51319;52.162;5.302;2023-06-22T14:37:48;24.30;80.20
43999;DHT22;51319;52.162;5.302;2023-06-22T14:40:16;24.30;80.30
43999;DHT22;51319;52.162;5.302;2023-06-22T14:42:43;24.20;80.00
43999;DHT22;51319;52.162;5.302;2023-06-22T14:45:12;24.20;79.60
43999;DHT22;51319;52.162;5.302;2023-06-22T14:47:39;24.10;79.60
43999;DHT22;51319;52.162;5.302;2023-06-22T14:50:07;24.10;79.70
43999;DHT22;51319;52.162;5.302;2023-06-22T14:52:34;24.00;80.20
43999;DHT22;51319;52.162;5.302;2023-06-22T14:55:02;24.00;80.30
43999;DHT22;51319;52.162;5.302;2023-06-22T14:57:31;23.90;80.70
43999;DHT22;51319;52.162;5.302;2023-06-22T14:59:58;23.80;81.10
43999;DHT22;51319;52.162;5.302;2023-06-22T15:02:25;23.80;81.10
43999;DHT22;51319;52.162;5.302;2023-06-22T15:04:52;23.70;81.40
43999;DHT22;51319;52.162;5.302;2023-06-22T15:07:20;23.70;81.50
43999;DHT22;51319;52.162;5.302;2023-06-22T15:09:47;23.60;81.80
43999;DHT22;51319;52.162;5.302;2023-06-22T15:12:15;23.60;82.20
43999;DHT22;51319;52.162;5.302;2023-06-22T15:14:43;23.50;82.60
43999;DHT22;51319;52.162;5.302;2023-06-22T15:17:11;23.40;82.40
43999;DHT22;51319;52.162;5.302;2023-06-22T15:19:41;23.40;83.40
43999;DHT22;51319;52.162;5.302;2023-06-22T15:22:08;23.40;84.50
43999;DHT22;51319;52.162;5.302;2023-06-22T15:24:35;23.30;84.60
43999;DHT22;51319;52.162;5.302;2023-06-22T15:27:02;23.30;85.00
43999;DHT22;51319;52.162;5.302;2023-06-22T15:29:30;23.30;85.30
43999;DHT22;51319;52.162;5.302;2023-06-22T15:32:00;23.20;85.30
43999;DHT22;51319;52.162;5.302;2023-06-22T15:34:28;23.20;85.80
43999;DHT22;51319;52.162;5.302;2023-06-22T15:36:55;23.20;86.00
43999;DHT22;51319;52.162;5.302;2023-06-22T15:39:22;23.20;86.40
43999;DHT22;51319;52.162;5.302;2023-06-22T15:41:53;23.20;86.50
43999;DHT22;51319;52.162;5.302;2023-06-22T15:44:22;23.10;86.30
43999;DHT22;51319;52.162;5.302;2023-06-22T15:46:49;23.10;86.40
43999;DHT22;51319;52.162;5.302;2023-06-22T15:49:17;23.10;86.60
43999;DHT22;51319;52.162;5.302;2023-06-22T15:51:44;23.00;86.60
43999;DHT22;51319;52.162;5.302;2023-06-22T15:54:11;23.00;87.50
43999;DHT22;51319;52.162;5.302;2023-06-22T15:56:38;22.90;88.30
43999;DHT22;51319;52.162;5.302;2023-06-22T15:59:06;22.90;88.40
43999;DHT22;51319;52.162;5.302;2023-06-22T16:01:35;22.80;88.70
43999;DHT22;51319;52.162;5.302;2023-06-22T16:04:04;22.80;89.60
43999;DHT22;51319;52.162;5.302;2023-06-22T16:06:31;22.80;90.00
43999;DHT22;51319;52.162;5.302;2023-06-22T16:08:58;22.70;90.20
43999;DHT22;51319;52.162;5.302;2023-06-22T16:11:25;22.70;90.30
43999;DHT22;51319;52.162;5.302;2023-06-22T16:13:55;22.60;90.40
43999;DHT22;51319;52.162;5.302;2023-06-22T16:16:23;22.60;90.60
43999;DHT22;51319;52.162;5.302;2023-06-22T16:18:51;22.50;90.90
43999;DHT22;51319;52.162;5.302;2023-06-22T16:21:18;22.50;91.00
43999;DHT22;51319;52.162;5.302;2023-06-22T16:23:45;22.40;91.10
43999;DHT22;51319;52.162;5.302;2023-06-22T16:26:12;22.40;91.30
43999;DHT22;51319;52.162;5.302;2023-06-22T16:28:39;22.30;91.50
43999;DHT22;51319;52.162;5.302;2023-06-22T16:31:06;22.30;91.60
43999;DHT22;51319;52.162;5.302;2023-06-22T16:33:33;22.30;91.70
43999;DHT22;51319;52.162;5.302;2023-06-22T16:36:00;22.30;91.70
43999;DHT22;51319;52.162;5.302;2023-06-22T16:38:27;22.20;91.90
43999;DHT22;51319;52.162;5.302;2023-06-22T16:40:56;22.20;92.20
43999;DHT22;51319;52.162;5.302;2023-06-22T16:43:23;22.20;92.50
43999;DHT22;51319;52.162;5.302;2023-06-22T16:45:51;22.20;92.80
43999;DHT22;51319;52.162;5.302;2023-06-22T16:48:18;22.20;93.00